sensor_id;sensor_type;location;lat;lon;timestamp;P1;durP1;ratioP1;P2;durP2;ratioP2
63201;SDS011;49296;48.188;11.566;2023-05-07T00:01:12;11.13;;;9.30;;
63201;SDS011;49296;48.188;11.566;2023-05-07T00:03:40;12.50;;;9.48;;
63201;SDS011;49296;48.188;11.566;2023-05-07T00:06:07;11.95;;;10.05;;
63201;SDS011;49296;48.188;11.566;2023-05-07T00:08:33;13.02;;;9.48;;
63201;SDS011;49296;48.188;11.566;2023-05-07T00:11:00;11.13;;;8.95;;
63201;SDS011;49296;48.188;11.566;2023-05-07T00:13:27;12.02;;;9.10;;
63201;SDS011;49296;48.188;11.566;2023-05-07T00:15:55;10.85;;;9.00;;
63201;SDS011;49296;48.188;11.566;2023-05-07T00:18:22;13.60;;;9.52;;
63201;SDS011;49296;48.188;11.566;2023-05-07T00:20:50;11.77;;;8.85;;
63201;SDS011;49296;48.188;11.566;2023-05-07T00:23:16;11.52;;;8.93;;
63201;SDS011;49296;48.188;11.566;2023-05-07T00:25:43;10.68;;;8.25;;
63201;SDS011;49296;48.188;11.566;2023-05-07T00:28:11;12.65;;;8.55;;
63201;SDS011;49296;48.188;11.566;2023-05-07T00:30:45;12.60;;;8.75;;
63201;SDS011;49296;48.188;11.566;2023-05-07T00:33:11;13.15;;;9.05;;
63201;SDS011;49296;48.188;11.566;2023-05-07T00:35:38;11.77;;;7.97;;
63201;SDS011;49296;48.188;11.566;2023-05-07T00:38:06;12.23;;;9.27;;
63201;SDS011;49296;48.188;11.566;2023-05-07T00:40:33;13.20;;;8.88;;
63201;SDS011;49296;48.188;11.566;2023-05-07T00:42:59;14.07;;;9.48;;
63201;SDS011;49296;48.188;11.566;2023-05-07T00:45:27;11.68;;;9.05;;
63201;SDS011;49296;48.188;11.566;2023-05-07T00:47:54;11.90;;;8.95;;
63201;SDS011;49296;48.188;11.566;2023-05-07T00:50:21;12.90;;;8.60;;
63201;SDS011;49296;48.188;11.566;2023-05-07T00:52:48;12.57;;;9.48;;
63201;SDS011;49296;48.188;11.566;2023-05-07T00:55:16;13.68;;;8.75;;
63201;SDS011;49296;48.188;11.566;2023-05-07T00:57:43;16.83;;;9.32;;
63201;SDS011;49296;48.188;11.566;2023-05-07T01:00:12;12.23;;;9.27;;
63201;SDS011;49296;48.188;11.566;2023-05-07T01:02:39;13.30;;;9.20;;
63201;SDS011;49296;48.188;11.566;2023-05-07T01:05:05;13.38;;;9.88;;
63201;SDS011;49296;48.188;11.566;2023-05-07T01:07:35;12.20;;;9.77;;
63201;SDS011;49296;48.188;11.566;2023-05-07T01:10:03;12.85;;;9.38;;
63201;SDS011;49296;48.188;11.566;2023-05-07T01:12:32;12.73;;;9.18;;
63201;SDS011;49296;48.188;11.566;2023-05-07T01:15:00;14.75;;;9.35;;
63201;SDS011;49296;48.188;11.566;2023-05-07T01:17:27;12.57;;;8.75;;
63201;SDS011;49296;48.188;11.566;2023-05-07T01:19:53;11.32;;;9.00;;
63201;SDS011;49296;48.188;11.566;2023-05-07T01:22:27;12.82;;;9.52;;
63201;SDS011;49296;48.188;11.566;2023-05-07T01:24:57;10.77;;;8.50;;
63201;SDS011;49296;48.188;11.566;2023-05-07T01:27:24;12.00;;;8.50;;
63201;SDS011;49296;48.188;11.566;2023-05-07T01:29:51;10.07;;;8.55;;
63201;SDS011;49296;48.188;11.566;2023-05-07T01:32:17;11.88;;;8.45;;
63201;SDS011;49296;48.188;11.566;2023-05-07T01:34:49;11.55;;;8.30;;
63201;SDS011;49296;48.188;11.566;2023-05-07T01:37:19;11.50;;;8.30;;
63201;SDS011;49296;48.188;11.566;2023-05-07T01:39:48;12.13;;;8.48;;
63201;SDS011;49296;48.188;11.566;2023-05-07T01:42:15;12.00;;;9.13;;
63201;SDS011;49296;48.188;11.566;2023-05-07T01:44:41;12.77;;;9.10;;
63201;SDS011;49296;48.188;11.566;2023-05-07T01:47:08;10.45;;;8.65;;
63201;SDS011;49296;48.188;11.566;2023-05-07T01:49:35;11.35;;;8.55;;
63201;SDS011;49296;48.188;11.566;2023-05-07T01:52:01;10.75;;;8.30;;
63201;SDS011;49296;48.188;11.566;2023-05-07T01:54:28;11.52;;;8.43;;
63201;SDS011;49296;48.188;11.566;2023-05-07T01:56:57;10.55;;;8.07;;
63201;SDS011;49296;48.188;11.566;2023-05-07T01:59:23;11.57;;;8.60;;
63201;SDS011;49296;48.188;11.566;2023-05-07T02:01:50;9.95;;;8.20;;
63201;SDS011;49296;48.188;11.566;2023-05-07T02:04:16;10.75;;;7.95;;
63201;SDS011;49296;48.188;11.566;2023-05-07T02:06:43;10.32;;;8.52;;
63201;SDS011;49296;48.188;11.566;2023-05-07T02:09:10;9.13;;;7.38;;
63201;SDS011;49296;48.188;11.566;2023-05-07T02:11:37;9.82;;;7.68;;
63201;SDS011;49296;48.188;11.566;2023-05-07T02:14:04;9.18;;;7.53;;
63201;SDS011;49296;48.188;11.566;2023-05-07T02:16:31;9.23;;;7.38;;
63201;SDS011;49296;48.188;11.566;2023-05-07T02:18:58;8.82;;;7.47;;
63201;SDS011;49296;48.188;11.566;2023-05-07T02:21:25;9.60;;;7.88;;
63201;SDS011;49296;48.188;11.566;2023-05-07T02:23:51;10.45;;;7.72;;
63201;SDS011;49296;48.188;11.566;2023-05-07T02:26:18;9.77;;;7.85;;
63201;SDS011;49296;48.188;11.566;2023-05-07T02:28:44;9.65;;;7.88;;
63201;SDS011;49296;48.188;11.566;2023-05-07T02:31:12;9.43;;;8.07;;
63201;SDS011;49296;48.188;11.566;2023-05-07T02:33:39;8.93;;;7.35;;
63201;SDS011;49296;48.188;11.566;2023-05-07T02:36:06;8.88;;;7.90;;
63201;SDS011;49296;48.188;11.566;2023-05-07T02:38:33;9.18;;;7.65;;
63201;SDS011;49296;48.188;11.566;2023-05-07T02:41:00;9.73;;;7.38;;
63201;SDS011;49296;48.188;11.566;2023-05-07T02:43:27;10.82;;;7.32;;
63201;SDS011;49296;48.188;11.566;2023-05-07T02:46:00;8.25;;;7.25;;
63201;SDS011;49296;48.188;11.566;2023-05-07T02:48:28;9.55;;;7.38;;
63201;SDS011;49296;48.188;11.566;2023-05-07T02:50:55;9.77;;;7.65;;
63201;SDS011;49296;48.188;11.566;2023-05-07T02:53:21;9.95;;;7.53;;
63201;SDS011;49296;48.188;11.566;2023-05-07T02:55:50;8.73;;;7.80;;
63201;SDS011;49296;48.188;11.566;2023-05-07T02:58:17;9.77;;;7.13;;
63201;SDS011;49296;48.188;11.566;2023-05-07T03:00:43;8.90;;;6.90;;
63201;SDS011;49296;48.188;11.566;2023-05-07T03:03:10;9.15;;;7.55;;
63201;SDS011;49296;48.188;11.566;2023-05-07T03:05:38;8.07;;;7.28;;
63201;SDS011;49296;48.188;11.566;2023-05-07T03:08:04;9.30;;;7.30;;
63201;SDS011;49296;48.188;11.566;2023-05-07T03:10:31;8.63;;;7.72;;
63201;SDS011;49296;48.188;11.566;2023-05-07T03:12:58;9.30;;;7.78;;
63201;SDS011;49296;48.188;11.566;2023-05-07T03:15:24;8.88;;;7.57;;
63201;SDS011;49296;48.188;11.566;2023-05-07T03:17:51;9.98;;;7.22;;
63201;SDS011;49296;48.188;11.566;2023-05-07T03:20:18;9.02;;;7.70;;
63201;SDS011;49296;48.188;11.566;2023-05-07T03:22:45;9.15;;;7.55;;
63201;SDS011;49296;48.188;11.566;2023-05-07T03:25:12;8.60;;;7.50;;
63201;SDS011;49296;48.188;11.566;2023-05-07T03:27:40;8.75;;;7.20;;
63201;SDS011;49296;48.188;11.566;2023-05-07T03:30:07;8.25;;;7.20;;
63201;SDS011;49296;48.188;11.566;2023-05-07T03:32:35;9.73;;;7.13;;
63201;SDS011;49296;48.188;11.566;2023-05-07T03:35:02;8.23;;;6.95;;
63201;SDS011;49296;48.188;11.566;2023-05-07T03:37:28;8.73;;;7.28;;
63201;SDS011;49296;48.188;11.566;2023-05-07T03:39:56;8.85;;;6.45;;
63201;SDS011;49296;48.188;11.566;2023-05-07T03:42:23;7.63;;;6.82;;
63201;SDS011;49296;48.188;11.566;2023-05-07T03:44:50;8.82;;;6.60;;
63201;SDS011;49296;48.188;11.566;2023-05-07T03:47:16;9.75;;;7.50;;
63201;SDS011;49296;48.188;11.566;2023-05-07T03:49:43;7.97;;;6.93;;
63201;SDS011;49296;48.188;11.566;2023-05-07T03:52:09;9.60;;;7.50;;
63201;SDS011;49296;48.188;11.566;2023-05-07T03:54:36;7.80;;;6.53;;
63201;SDS011;49296;48.188;11.566;2023-05-07T03:57:04;8.82;;;7.10;;
63201;SDS011;49296;48.188;11.566;2023-05-07T03:59:31;8.38;;;6.82;;
63201;SDS011;49296;48.188;11.566;2023-05-07T04:01:57;7.70;;;6.82;;
63201;SDS011;49296;48.188;11.566;2023-05-07T04:04:24;9.32;;;7.35;;
63201;SDS011;49296;48.188;11.566;2023-05-07T04:06:51;9.52;;;6.65;;
63201;SDS011;49296;48.188;11.566;2023-05-07T04:09:18;10.02;;;7.03;;
63201;SDS011;49296;48.188;11.566;2023-05-07T04:11:45;13.70;;;7.93;;
63201;SDS011;49296;48.188;11.566;2023-05-07T04:14:13;9.07;;;7.63;;
63201;SDS011;49296;48.188;11.566;2023-05-07T04:16:39;9.25;;;6.82;;
63201;SDS011;49296;48.188;11.566;2023-05-07T04:19:06;7.97;;;6.95;;
63201;SDS011;49296;48.188;11.566;2023-05-07T04:21:33;9.05;;;6.95;;
63201;SDS011;49296;48.188;11.566;2023-05-07T04:23:59;9.05;;;7.05;;
63201;SDS011;49296;48.188;11.566;2023-05-07T04:26:26;8.75;;;7.20;;
63201;SDS011;49296;48.188;11.566;2023-05-07T04:28:53;7.82;;;6.90;;
63201;SDS011;49296;48.188;11.566;2023-05-07T04:31:21;9.85;;;7.07;;
63201;SDS011;49296;48.188;11.566;2023-05-07T04:33:47;7.90;;;6.75;;
63201;SDS011;49296;48.188;11.566;2023-05-07T04:36:15;11.40;;;7.13;;
63201;SDS011;49296;48.188;11.566;2023-05-07T04:38:42;11.45;;;7.43;;
63201;SDS011;49296;48.188;11.566;2023-05-07T04:41:09;11.40;;;7.45;;
63201;SDS011;49296;48.188;11.566;2023-05-07T04:43:39;9.38;;;7.30;;
63201;SDS011;49296;48.188;11.566;2023-05-07T04:46:06;10.57;;;7.65;;
63201;SDS011;49296;48.188;11.566;2023-05-07T04:48:34;8.75;;;6.97;;
63201;SDS011;49296;48.188;11.566;2023-05-07T04:51:01;7.93;;;6.53;;
63201;SDS011;49296;48.188;11.566;2023-05-07T04:53:28;9.88;;;7.10;;
63201;SDS011;49296;48.188;11.566;2023-05-07T04:55:55;8.10;;;7.15;;
63201;SDS011;49296;48.188;11.566;2023-05-07T04:58:22;9.20;;;7.75;;
63201;SDS011;49296;48.188;11.566;2023-05-07T05:00:49;9.70;;;7.40;;
63201;SDS011;49296;48.188;11.566;2023-05-07T05:03:16;8.52;;;7.07;;
63201;SDS011;49296;48.188;11.566;2023-05-07T05:05:44;8.73;;;7.05;;
63201;SDS011;49296;48.188;11.566;2023-05-07T05:08:10;9.40;;;7.38;;
63201;SDS011;49296;48.188;11.566;2023-05-07T05:10:37;8.95;;;7.10;;
63201;SDS011;49296;48.188;11.566;2023-05-07T05:13:03;7.75;;;6.50;;
63201;SDS011;49296;48.188;11.566;2023-05-07T05:15:30;9.40;;;7.60;;
63201;SDS011;49296;48.188;11.566;2023-05-07T05:17:59;10.13;;;7.67;;
63201;SDS011;49296;48.188;11.566;2023-05-07T05:20:26;12.15;;;8.23;;
63201;SDS011;49296;48.188;11.566;2023-05-07T05:22:54;8.95;;;6.43;;
63201;SDS011;49296;48.188;11.566;2023-05-07T05:25:20;8.07;;;6.80;;
63201;SDS011;49296;48.188;11.566;2023-05-07T05:27:47;7.80;;;6.30;;
63201;SDS011;49296;48.188;11.566;2023-05-07T05:30:14;8.07;;;6.82;;
63201;SDS011;49296;48.188;11.566;2023-05-07T05:32:40;7.75;;;6.10;;
63201;SDS011;49296;48.188;11.566;2023-05-07T05:35:07;8.07;;;6.38;;
63201;SDS011;49296;48.188;11.566;2023-05-07T05:37:34;8.75;;;6.80;;
63201;SDS011;49296;48.188;11.566;2023-05-07T05:40:02;8.30;;;6.22;;
63201;SDS011;49296;48.188;11.566;2023-05-07T05:42:29;7.53;;;6.55;;
63201;SDS011;49296;48.188;11.566;2023-05-07T05:44:56;7.88;;;6.40;;
63201;SDS011;49296;48.188;11.566;2023-05-07T05:47:22;7.13;;;6.00;;
63201;SDS011;49296;48.188;11.566;2023-05-07T05:49:49;10.35;;;5.80;;
63201;SDS011;49296;48.188;11.566;2023-05-07T05:52:16;6.90;;;6.20;;
63201;SDS011;49296;48.188;11.566;2023-05-07T05:54:42;7.50;;;6.10;;
63201;SDS011;49296;48.188;11.566;2023-05-07T05:57:10;8.70;;;6.18;;
63201;SDS011;49296;48.188;11.566;2023-05-07T05:59:37;7.95;;;5.60;;
63201;SDS011;49296;48.188;11.566;2023-05-07T06:02:04;6.15;;;5.10;;
63201;SDS011;49296;48.188;11.566;2023-05-07T06:04:30;7.05;;;5.35;;
63201;SDS011;49296;48.188;11.566;2023-05-07T06:06:57;8.23;;;5.18;;
63201;SDS011;49296;48.188;11.566;2023-05-07T06:09:23;7.13;;;5.55;;
63201;SDS011;49296;48.188;11.566;2023-05-07T06:11:50;7.50;;;5.63;;
63201;SDS011;49296;48.188;11.566;2023-05-07T06:14:18;8.00;;;5.80;;
63201;SDS011;49296;48.188;11.566;2023-05-07T06:16:45;6.75;;;5.68;;
63201;SDS011;49296;48.188;11.566;2023-05-07T06:19:11;7.70;;;5.35;;
63201;SDS011;49296;48.188;11.566;2023-05-07T06:21:38;6.95;;;5.75;;
63201;SDS011;49296;48.188;11.566;2023-05-07T06:24:06;7.65;;;5.30;;
63201;SDS011;49296;48.188;11.566;2023-05-07T06:26:32;8.30;;;5.28;;
63201;SDS011;49296;48.188;11.566;2023-05-07T06:28:59;6.90;;;5.30;;
63201;SDS011;49296;48.188;11.566;2023-05-07T06:31:29;8.00;;;6.07;;
63201;SDS011;49296;48.188;11.566;2023-05-07T06:33:56;7.18;;;5.03;;
63201;SDS011;49296;48.188;11.566;2023-05-07T06:36:23;8.00;;;5.30;;
63201;SDS011;49296;48.188;11.566;2023-05-07T06:38:51;8.38;;;5.63;;
63201;SDS011;49296;48.188;11.566;2023-05-07T06:41:17;6.38;;;5.18;;
63201;SDS011;49296;48.188;11.566;2023-05-07T06:43:45;5.53;;;4.53;;
63201;SDS011;49296;48.188;11.566;2023-05-07T06:46:12;6.57;;;4.45;;
63201;SDS011;49296;48.188;11.566;2023-05-07T06:48:40;7.05;;;4.40;;
63201;SDS011;49296;48.188;11.566;2023-05-07T06:51:06;6.65;;;4.80;;
63201;SDS011;49296;48.188;11.566;2023-05-07T06:53:33;6.00;;;4.47;;
63201;SDS011;49296;48.188;11.566;2023-05-07T06:56:00;6.90;;;4.68;;
63201;SDS011;49296;48.188;11.566;2023-05-07T06:58:27;5.18;;;3.95;;
63201;SDS011;49296;48.188;11.566;2023-05-07T07:00:54;4.80;;;3.70;;
63201;SDS011;49296;48.188;11.566;2023-05-07T07:03:21;6.78;;;4.15;;
63201;SDS011;49296;48.188;11.566;2023-05-07T07:05:48;6.63;;;4.03;;
63201;SDS011;49296;48.188;11.566;2023-05-07T07:08:18;5.90;;;3.40;;
63201;SDS011;49296;48.188;11.566;2023-05-07T07:10:46;6.25;;;4.45;;
63201;SDS011;49296;48.188;11.566;2023-05-07T07:13:12;7.18;;;4.25;;
63201;SDS011;49296;48.188;11.566;2023-05-07T07:15:39;5.40;;;4.00;;
63201;SDS011;49296;48.188;11.566;2023-05-07T07:18:06;5.95;;;4.72;;
63201;SDS011;49296;48.188;11.566;2023-05-07T07:20:33;6.68;;;3.88;;
63201;SDS011;49296;48.188;11.566;2023-05-07T07:23:01;5.78;;;4.15;;
63201;SDS011;49296;48.188;11.566;2023-05-07T07:25:27;5.20;;;3.70;;
63201;SDS011;49296;48.188;11.566;2023-05-07T07:27:54;6.30;;;4.28;;
63201;SDS011;49296;48.188;11.566;2023-05-07T07:30:20;5.28;;;3.75;;
63201;SDS011;49296;48.188;11.566;2023-05-07T07:32:47;7.10;;;4.75;;
63201;SDS011;49296;48.188;11.566;2023-05-07T07:35:14;5.88;;;4.38;;
63201;SDS011;49296;48.188;11.566;2023-05-07T07:37:41;7.78;;;4.95;;
63201;SDS011;49296;48.188;11.566;2023-05-07T07:40:09;5.90;;;4.18;;
63201;SDS011;49296;48.188;11.566;2023-05-07T07:42:37;6.10;;;4.47;;
63201;SDS011;49296;48.188;11.566;2023-05-07T07:45:04;5.93;;;4.65;;
63201;SDS011;49296;48.188;11.566;2023-05-07T07:47:32;6.65;;;5.28;;
63201;SDS011;49296;48.188;11.566;2023-05-07T07:49:58;6.40;;;4.50;;
63201;SDS011;49296;48.188;11.566;2023-05-07T07:52:25;6.10;;;4.88;;
63201;SDS011;49296;48.188;11.566;2023-05-07T07:54:51;6.15;;;4.68;;
63201;SDS011;49296;48.188;11.566;2023-05-07T07:57:19;5.45;;;4.32;;
63201;SDS011;49296;48.188;11.566;2023-05-07T07:59:46;9.23;;;4.75;;
63201;SDS011;49296;48.188;11.566;2023-05-07T08:02:12;7.28;;;4.63;;
63201;SDS011;49296;48.188;11.566;2023-05-07T08:04:39;6.85;;;4.65;;
63201;SDS011;49296;48.188;11.566;2023-05-07T08:07:06;9.75;;;5.57;;
63201;SDS011;49296;48.188;11.566;2023-05-07T08:09:33;8.23;;;4.90;;
63201;SDS011;49296;48.188;11.566;2023-05-07T08:12:00;5.47;;;4.60;;
63201;SDS011;49296;48.188;11.566;2023-05-07T08:14:28;6.30;;;4.25;;
63201;SDS011;49296;48.188;11.566;2023-05-07T08:16:55;6.38;;;4.75;;
63201;SDS011;49296;48.188;11.566;2023-05-07T08:19:22;7.60;;;4.90;;
63201;SDS011;49296;48.188;11.566;2023-05-07T08:21:48;8.02;;;4.60;;
63201;SDS011;49296;48.188;11.566;2023-05-07T08:24:15;5.95;;;4.88;;
63201;SDS011;49296;48.188;11.566;2023-05-07T08:26:43;7.68;;;5.10;;
63201;SDS011;49296;48.188;11.566;2023-05-07T08:29:10;6.30;;;4.55;;
63201;SDS011;49296;48.188;11.566;2023-05-07T08:31:38;7.10;;;4.68;;
63201;SDS011;49296;48.188;11.566;2023-05-07T08:34:08;8.75;;;5.40;;
63201;SDS011;49296;48.188;11.566;2023-05-07T08:36:40;9.98;;;6.60;;
63201;SDS011;49296;48.188;11.566;2023-05-07T08:39:07;11.63;;;5.75;;
63201;SDS011;49296;48.188;11.566;2023-05-07T08:41:34;7.45;;;5.55;;
63201;SDS011;49296;48.188;11.566;2023-05-07T08:44:01;7.18;;;5.03;;
63201;SDS011;49296;48.188;11.566;2023-05-07T08:46:31;5.97;;;4.57;;
63201;SDS011;49296;48.188;11.566;2023-05-07T08:48:59;5.18;;;4.35;;
63201;SDS011;49296;48.188;11.566;2023-05-07T08:51:27;5.70;;;4.75;;
63201;SDS011;49296;48.188;11.566;2023-05-07T08:53:54;6.22;;;4.68;;
63201;SDS011;49296;48.188;11.566;2023-05-07T08:56:20;6.95;;;4.47;;
63201;SDS011;49296;48.188;11.566;2023-05-07T08:58:47;7.05;;;4.25;;
63201;SDS011;49296;48.188;11.566;2023-05-07T09:01:14;7.55;;;4.72;;
63201;SDS011;49296;48.188;11.566;2023-05-07T09:03:45;5.47;;;4.47;;
63201;SDS011;49296;48.188;11.566;2023-05-07T09:06:14;6.00;;;4.68;;
63201;SDS011;49296;48.188;11.566;2023-05-07T09:08:43;4.75;;;3.85;;
63201;SDS011;49296;48.188;11.566;2023-05-07T09:11:15;4.95;;;3.88;;
63201;SDS011;49296;48.188;11.566;2023-05-07T09:13:42;5.93;;;3.92;;
63201;SDS011;49296;48.188;11.566;2023-05-07T09:16:09;6.25;;;4.40;;
63201;SDS011;49296;48.188;11.566;2023-05-07T09:18:40;5.60;;;3.63;;
63201;SDS011;49296;48.188;11.566;2023-05-07T09:21:09;4.95;;;3.55;;
63201;SDS011;49296;48.188;11.566;2023-05-07T09:23:37;7.18;;;3.97;;
63201;SDS011;49296;48.188;11.566;2023-05-07T09:26:04;6.00;;;4.00;;
63201;SDS011;49296;48.188;11.566;2023-05-07T09:28:33;5.38;;;3.80;;
63201;SDS011;49296;48.188;11.566;2023-05-07T09:31:00;6.13;;;4.63;;
63201;SDS011;49296;48.188;11.566;2023-05-07T09:33:27;7.13;;;4.00;;
63201;SDS011;49296;48.188;11.566;2023-05-07T09:35:54;6.22;;;3.85;;
63201;SDS011;49296;48.188;11.566;2023-05-07T09:38:21;5.90;;;4.30;;
63201;SDS011;49296;48.188;11.566;2023-05-07T09:40:55;5.70;;;3.70;;
63201;SDS011;49296;48.188;11.566;2023-05-07T09:43:31;4.93;;;3.88;;
63201;SDS011;49296;48.188;11.566;2023-05-07T09:45:59;6.18;;;3.85;;
63201;SDS011;49296;48.188;11.566;2023-05-07T09:48:29;5.03;;;3.53;;
63201;SDS011;49296;48.188;11.566;2023-05-07T09:50:56;6.30;;;4.40;;
63201;SDS011;49296;48.188;11.566;2023-05-07T09:53:24;6.68;;;4.38;;
63201;SDS011;49296;48.188;11.566;2023-05-07T09:55:51;6.45;;;3.50;;
63201;SDS011;49296;48.188;11.566;2023-05-07T09:58:20;5.70;;;3.45;;
63201;SDS011;49296;48.188;11.566;2023-05-07T10:00:48;4.68;;;2.90;;
63201;SDS011;49296;48.188;11.566;2023-05-07T10:03:16;4.82;;;3.08;;
63201;SDS011;49296;48.188;11.566;2023-05-07T10:05:45;4.70;;;3.22;;
63201;SDS011;49296;48.188;11.566;2023-05-07T10:08:13;4.13;;;2.70;;
63201;SDS011;49296;48.188;11.566;2023-05-07T10:10:42;4.72;;;2.78;;
63201;SDS011;49296;48.188;11.566;2023-05-07T10:13:08;4.57;;;2.70;;
63201;SDS011;49296;48.188;11.566;2023-05-07T10:15:37;4.93;;;2.45;;
63201;SDS011;49296;48.188;11.566;2023-05-07T10:18:04;5.43;;;2.45;;
63201;SDS011;49296;48.188;11.566;2023-05-07T10:20:32;4.93;;;3.33;;
63201;SDS011;49296;48.188;11.566;2023-05-07T10:23:00;5.25;;;3.08;;
63201;SDS011;49296;48.188;11.566;2023-05-07T10:25:31;4.40;;;2.60;;
63201;SDS011;49296;48.188;11.566;2023-05-07T10:27:59;4.45;;;3.30;;
63201;SDS011;49296;48.188;11.566;2023-05-07T10:30:33;3.47;;;1.83;;
63201;SDS011;49296;48.188;11.566;2023-05-07T10:33:15;4.07;;;2.20;;
63201;SDS011;49296;48.188;11.566;2023-05-07T10:35:45;3.83;;;2.40;;
63201;SDS011;49296;48.188;11.566;2023-05-07T10:38:13;5.03;;;2.58;;
63201;SDS011;49296;48.188;11.566;2023-05-07T10:40:40;3.55;;;2.40;;
63201;SDS011;49296;48.188;11.566;2023-05-07T10:43:06;4.13;;;2.78;;
63201;SDS011;49296;48.188;11.566;2023-05-07T10:45:33;4.93;;;2.75;;
63201;SDS011;49296;48.188;11.566;2023-05-07T10:48:06;3.92;;;2.47;;
63201;SDS011;49296;48.188;11.566;2023-05-07T10:50:34;4.50;;;2.92;;
63201;SDS011;49296;48.188;11.566;2023-05-07T10:55:49;5.63;;;2.80;;
63201;SDS011;49296;48.188;11.566;2023-05-07T10:58:22;4.47;;;3.35;;
63201;SDS011;49296;48.188;11.566;2023-05-07T11:00:50;5.20;;;3.10;;
63201;SDS011;49296;48.188;11.566;2023-05-07T11:03:18;4.28;;;2.70;;
63201;SDS011;49296;48.188;11.566;2023-05-07T11:05:47;3.50;;;2.20;;
63201;SDS011;49296;48.188;11.566;2023-05-07T11:11:33;4.72;;;3.20;;
63201;SDS011;49296;48.188;11.566;2023-05-07T11:14:15;6.28;;;3.55;;
63201;SDS011;49296;48.188;11.566;2023-05-07T11:17:10;6.30;;;3.38;;
63201;SDS011;49296;48.188;11.566;2023-05-07T11:19:51;3.55;;;2.58;;
63201;SDS011;49296;48.188;11.566;2023-05-07T11:22:37;5.15;;;2.65;;
63201;SDS011;49296;48.188;11.566;2023-05-07T11:25:06;4.97;;;2.58;;
63201;SDS011;49296;48.188;11.566;2023-05-07T11:27:33;5.07;;;3.40;;
63201;SDS011;49296;48.188;11.566;2023-05-07T11:30:00;4.75;;;3.08;;
63201;SDS011;49296;48.188;11.566;2023-05-07T11:32:27;4.93;;;3.20;;
63201;SDS011;49296;48.188;11.566;2023-05-07T11:34:57;5.40;;;3.65;;
63201;SDS011;49296;48.188;11.566;2023-05-07T11:37:25;4.60;;;3.33;;
63201;SDS011;49296;48.188;11.566;2023-05-07T11:40:01;4.30;;;2.72;;
63201;SDS011;49296;48.188;11.566;2023-05-07T11:42:30;5.07;;;3.42;;
63201;SDS011;49296;48.188;11.566;2023-05-07T11:44:58;4.45;;;3.15;;
63201;SDS011;49296;48.188;11.566;2023-05-07T11:47:25;5.65;;;4.00;;
63201;SDS011;49296;48.188;11.566;2023-05-07T11:49:53;4.53;;;3.20;;
63201;SDS011;49296;48.188;11.566;2023-05-07T11:52:22;6.18;;;3.10;;
63201;SDS011;49296;48.188;11.566;2023-05-07T11:54:49;4.73;;;3.23;;
63201;SDS011;49296;48.188;11.566;2023-05-07T11:57:16;4.40;;;3.35;;
63201;SDS011;49296;48.188;11.566;2023-05-07T11:59:43;5.60;;;3.40;;
63201;SDS011;49296;48.188;11.566;2023-05-07T12:02:13;4.22;;;2.42;;
63201;SDS011;49296;48.188;11.566;2023-05-07T12:04:40;5.80;;;3.42;;
63201;SDS011;49296;48.188;11.566;2023-05-07T12:07:10;5.30;;;3.38;;
63201;SDS011;49296;48.188;11.566;2023-05-07T12:09:40;4.85;;;3.17;;
63201;SDS011;49296;48.188;11.566;2023-05-07T12:12:07;4.05;;;2.60;;
63201;SDS011;49296;48.188;11.566;2023-05-07T12:14:37;7.45;;;3.95;;
63201;SDS011;49296;48.188;11.566;2023-05-07T12:19:30;4.10;;;2.65;;
63201;SDS011;49296;48.188;11.566;2023-05-07T12:21:57;4.10;;;2.78;;
63201;SDS011;49296;48.188;11.566;2023-05-07T12:24:24;4.63;;;2.50;;
63201;SDS011;49296;48.188;11.566;2023-05-07T12:26:52;4.47;;;2.28;;
63201;SDS011;49296;48.188;11.566;2023-05-07T12:29:21;4.10;;;2.60;;
63201;SDS011;49296;48.188;11.566;2023-05-07T12:35:09;4.70;;;2.95;;
63201;SDS011;49296;48.188;11.566;2023-05-07T12:37:39;5.75;;;3.55;;
63201;SDS011;49296;48.188;11.566;2023-05-07T12:40:08;4.15;;;2.67;;
63201;SDS011;49296;48.188;11.566;2023-05-07T12:42:39;4.32;;;2.60;;
63201;SDS011;49296;48.188;11.566;2023-05-07T12:45:10;3.25;;;2.05;;
63201;SDS011;49296;48.188;11.566;2023-05-07T12:47:37;4.18;;;2.42;;
63201;SDS011;49296;48.188;11.566;2023-05-07T12:50:04;3.88;;;2.50;;
63201;SDS011;49296;48.188;11.566;2023-05-07T12:52:32;4.32;;;2.30;;
63201;SDS011;49296;48.188;11.566;2023-05-07T12:55:04;4.38;;;2.35;;
63201;SDS011;49296;48.188;11.566;2023-05-07T12:57:31;4.20;;;2.17;;
63201;SDS011;49296;48.188;11.566;2023-05-07T13:00:06;4.18;;;2.17;;
63201;SDS011;49296;48.188;11.566;2023-05-07T13:02:34;3.28;;;2.10;;
63201;SDS011;49296;48.188;11.566;2023-05-07T13:05:00;4.22;;;2.05;;
63201;SDS011;49296;48.188;11.566;2023-05-07T13:07:27;3.45;;;2.00;;
63201;SDS011;49296;48.188;11.566;2023-05-07T13:09:54;3.30;;;2.10;;
63201;SDS011;49296;48.188;11.566;2023-05-07T13:12:20;3.35;;;2.00;;
63201;SDS011;49296;48.188;11.566;2023-05-07T13:15:02;4.65;;;2.67;;
63201;SDS011;49296;48.188;11.566;2023-05-07T13:17:29;4.57;;;2.40;;
63201;SDS011;49296;48.188;11.566;2023-05-07T13:19:56;4.03;;;2.70;;
63201;SDS011;49296;48.188;11.566;2023-05-07T13:22:23;3.80;;;2.50;;
63201;SDS011;49296;48.188;11.566;2023-05-07T13:24:50;5.13;;;2.60;;
63201;SDS011;49296;48.188;11.566;2023-05-07T13:27:16;6.18;;;2.80;;
63201;SDS011;49296;48.188;11.566;2023-05-07T13:29:44;5.20;;;2.83;;
63201;SDS011;49296;48.188;11.566;2023-05-07T13:32:12;4.97;;;3.10;;
63201;SDS011;49296;48.188;11.566;2023-05-07T13:34:39;4.90;;;2.90;;
63201;SDS011;49296;48.188;11.566;2023-05-07T13:37:06;4.75;;;2.60;;
63201;SDS011;49296;48.188;11.566;2023-05-07T13:39:33;5.00;;;3.30;;
63201;SDS011;49296;48.188;11.566;2023-05-07T13:42:00;3.80;;;2.65;;
63201;SDS011;49296;48.188;11.566;2023-05-07T13:44:27;4.18;;;3.10;;
63201;SDS011;49296;48.188;11.566;2023-05-07T13:46:54;4.05;;;2.72;;
63201;SDS011;49296;48.188;11.566;2023-05-07T13:49:22;4.22;;;3.30;;
63201;SDS011;49296;48.188;11.566;2023-05-07T13:51:49;5.00;;;2.67;;
63201;SDS011;49296;48.188;11.566;2023-05-07T13:54:15;4.85;;;3.28;;
63201;SDS011;49296;48.188;11.566;2023-05-07T13:56:42;6.10;;;3.20;;
63201;SDS011;49296;48.188;11.566;2023-05-07T13:59:09;4.60;;;3.47;;
63201;SDS011;49296;48.188;11.566;2023-05-07T14:01:37;4.70;;;3.30;;
63201;SDS011;49296;48.188;11.566;2023-05-07T14:04:04;4.40;;;3.25;;
63201;SDS011;49296;48.188;11.566;2023-05-07T14:06:32;4.32;;;2.90;;
63201;SDS011;49296;48.188;11.566;2023-05-07T14:08:59;5.35;;;3.40;;
63201;SDS011;49296;48.188;11.566;2023-05-07T14:11:26;6.20;;;3.75;;
63201;SDS011;49296;48.188;11.566;2023-05-07T14:13:52;6.40;;;3.70;;
63201;SDS011;49296;48.188;11.566;2023-05-07T14:16:19;4.55;;;3.25;;
63201;SDS011;49296;48.188;11.566;2023-05-07T14:18:46;3.92;;;2.92;;
63201;SDS011;49296;48.188;11.566;2023-05-07T14:21:13;3.75;;;3.20;;
63201;SDS011;49296;48.188;11.566;2023-05-07T14:23:41;5.47;;;3.50;;
63201;SDS011;49296;48.188;11.566;2023-05-07T14:26:08;4.82;;;3.13;;
63201;SDS011;49296;48.188;11.566;2023-05-07T14:28:35;5.50;;;3.95;;
63201;SDS011;49296;48.188;11.566;2023-05-07T14:31:04;4.57;;;3.43;;
63201;SDS011;49296;48.188;11.566;2023-05-07T14:33:31;5.40;;;3.00;;
63201;SDS011;49296;48.188;11.566;2023-05-07T14:35:58;4.30;;;3.55;;
63201;SDS011;49296;48.188;11.566;2023-05-07T14:38:25;4.32;;;3.00;;
63201;SDS011;49296;48.188;11.566;2023-05-07T14:40:54;4.78;;;3.08;;
63201;SDS011;49296;48.188;11.566;2023-05-07T14:43:21;4.47;;;2.95;;
63201;SDS011;49296;48.188;11.566;2023-05-07T14:45:48;4.82;;;3.03;;
63201;SDS011;49296;48.188;11.566;2023-05-07T14:48:15;4.65;;;3.20;;